Time;durP1;ratioP1;P1;durP2;ratioP2;P2;SDS_P1;SDS_P2;PMS_P1;PMS_P2;Temp;Humidity;BMP_temperature;BMP_pressure;BME280_temperature;BME280_humidity;BME280_pressure;Samples;Min_cycle;Max_cycle;Signal;HPM_P1;HPM_P2
2022/11/05 00:09:31;;;;;;;2.40;2.30;;;6.30;99.90;;;;;;4982687;28;20259;-71
2022/11/05 00:17:35;;;;;;;2.30;2.20;;;6.30;99.90;;;;;;4994902;28;20220;-71
2022/11/05 00:20:02;;;;;;;2.38;2.28;;;6.40;99.90;;;;;;4988377;28;20242;-72
2022/11/05 00:25:15;;;;;;;2.15;2.05;;;6.40;99.90;;;;;;4998162;28;20312;-71
2022/11/05 00:27:46;;;;;;;2.25;2.10;;;6.40;99.90;;;;;;4994395;28;20221;-72
2022/11/05 00:30:16;;;;;;;2.05;1.95;;;6.40;99.90;;;;;;4995054;28;20227;-71
2022/11/05 00:32:46;;;;;;;2.17;2.08;;;6.50;99.90;;;;;;4994842;28;20718;-72
2022/11/05 00:35:14;;;;;;;2.20;2.10;;;6.40;99.90;;;;;;4996471;28;20555;-72
2022/11/05 00:37:42;;;;;;;2.40;2.30;;;6.40;99.90;;;;;;4990025;28;20221;-72
2022/11/05 00:40:10;;;;;;;2.28;2.17;;;6.40;99.90;;;;;;4994459;28;20541;-71
2022/11/05 00:45:23;;;;;;;2.08;1.98;;;6.40;99.90;;;;;;4988726;28;20273;-71
2022/11/05 00:50:37;;;;;;;1.85;1.80;;;6.40;99.90;;;;;;4992083;28;20852;-71
2022/11/05 00:53:04;;;;;;;1.98;1.88;;;6.40;99.90;;;;;;4992950;28;20218;-72
2022/11/05 00:55:34;;;;;;;2.08;1.98;;;6.40;99.90;;;;;;4986378;28;20201;-71
2022/11/05 00:58:02;;;;;;;2.13;2.03;;;6.30;99.90;;;;;;4992261;28;21259;-71
2022/11/05 01:00:31;;;;;;;2.20;2.10;;;6.30;99.90;;;;;;4996115;28;20212;-71
2022/11/05 01:03:01;;;;;;;2.20;2.10;;;6.30;99.90;;;;;;4991398;28;20224;-72
2022/11/05 01:05:30;;;;;;;2.22;2.13;;;6.20;99.90;;;;;;4991720;28;20241;-71
2022/11/05 01:07:57;;;;;;;2.22;2.13;;;6.10;99.90;;;;;;4995036;28;20225;-71
2022/11/05 01:10:24;;;;;;;2.50;2.40;;;6.10;99.90;;;;;;4995841;28;20193;-71
2022/11/05 01:12:52;;;;;;;2.30;2.20;;;6.10;99.90;;;;;;4990099;28;20220;-71
2022/11/05 01:15:20;;;;;;;2.40;2.30;;;6.10;99.90;;;;;;4990539;28;20663;-71
2022/11/05 01:17:47;;;;;;;2.10;2.00;;;6.10;99.90;;;;;;4993957;28;20217;-72
2022/11/05 01:20:16;;;;;;;2.33;2.22;;;6.20;99.90;;;;;;4988763;28;20228;-71
2022/11/05 01:22:43;;;;;;;2.20;2.10;;;6.20;99.90;;;;;;4994291;28;20700;-71
2022/11/05 01:25:10;;;;;;;2.13;2.03;;;6.10;99.90;;;;;;4987649;28;20257;-71
2022/11/05 01:27:38;;;;;;;2.22;2.10;;;6.20;99.90;;;;;;4992551;28;20220;-71
2022/11/05 01:30:07;;;;;;;2.00;1.90;;;6.20;99.90;;;;;;4994620;28;20566;-71
2022/11/05 01:32:35;;;;;;;2.17;2.08;;;6.20;99.90;;;;;;4993122;28;20233;-72
2022/11/05 01:35:02;;;;;;;2.30;2.20;;;6.20;99.90;;;;;;4992015;28;20225;-71
2022/11/05 01:37:31;;;;;;;2.08;1.98;;;6.20;99.90;;;;;;4998386;28;20220;-72
2022/11/05 01:39:58;;;;;;;2.17;2.08;;;6.10;99.90;;;;;;4986546;28;20604;-71
2022/11/05 01:42:26;;;;;;;1.92;1.90;;;6.10;99.90;;;;;;4997338;28;20596;-72
2022/11/05 01:45:00;;;;;;;2.20;2.10;;;6.10;99.90;;;;;;4998628;28;20193;-71
2022/11/05 01:47:34;;;;;;;2.42;2.33;;;6.10;99.90;;;;;;4989899;28;20589;-71
2022/11/05 01:50:05;;;;;;;2.10;2.00;;;6.10;99.90;;;;;;5001035;28;20224;-71
2022/11/05 01:52:35;;;;;;;2.00;1.90;;;6.10;99.90;;;;;;4999135;28;20434;-71
2022/11/05 01:55:05;;;;;;;2.13;2.03;;;6.10;99.90;;;;;;4998868;28;20229;-71
2022/11/05 01:57:33;;;;;;;2.28;2.17;;;6.10;99.90;;;;;;4989407;28;20225;-71
2022/11/05 02:00:02;;;;;;;2.53;2.42;;;6.10;99.90;;;;;;4993493;28;20269;-71
2022/11/05 02:02:30;;;;;;;2.22;2.13;;;6.00;99.90;;;;;;4995098;28;20247;-71
2022/11/05 02:05:02;;;;;;;2.03;1.92;;;6.00;99.90;;;;;;4993137;28;20203;-71
2022/11/05 02:07:30;;;;;;;2.38;2.28;;;6.10;99.90;;;;;;4996147;28;20279;-71
2022/11/05 02:10:02;;;;;;;2.10;2.00;;;6.00;99.90;;;;;;4992527;28;20701;-71
2022/11/05 02:12:30;;;;;;;2.38;2.28;;;6.00;99.90;;;;;;4987581;28;20731;-71
2022/11/05 02:14:58;;;;;;;2.22;2.13;;;6.00;99.90;;;;;;4997275;28;20211;-71
2022/11/05 02:17:37;;;;;;;1.90;1.80;;;5.90;99.90;;;;;;4992364;28;20603;-71
2022/11/05 02:20:26;;;;;;;2.25;2.15;;;5.80;99.90;;;;;;4994345;28;20205;-71
2022/11/05 02:23:18;;;;;;;1.88;1.85;;;5.90;99.90;;;;;;4994166;28;20614;-71
2022/11/05 02:26:19;;;;;;;2.20;2.10;;;5.90;99.90;;;;;;4991232;28;20196;-71
2022/11/05 02:29:34;;;;;;;2.10;2.00;;;6.00;99.90;;;;;;4996632;28;20240;-71
2022/11/05 02:32:09;;;;;;;1.70;1.70;;;6.10;99.90;;;;;;4960748;28;20233;-71
2022/11/05 02:34:46;;;;;;;2.35;2.25;;;6.00;99.90;;;;;;4998222;28;20196;-71
2022/11/05 02:37:25;;;;;;;2.38;2.28;;;6.00;99.90;;;;;;4986921;28;20221;-71
2022/11/05 02:40:01;;;;;;;2.30;2.20;;;6.00;99.90;;;;;;4992446;28;20247;-71
2022/11/05 02:42:35;;;;;;;2.17;2.08;;;5.90;99.90;;;;;;4990939;28;20715;-70
2022/11/05 02:45:10;;;;;;;2.20;2.10;;;5.90;99.90;;;;;;4986045;28;20197;-71
2022/11/05 02:47:44;;;;;;;1.88;1.83;;;5.90;99.90;;;;;;4988690;28;20252;-71
2022/11/05 02:50:22;;;;;;;2.33;2.22;;;5.90;99.90;;;;;;4983814;28;20406;-71
2022/11/05 02:52:59;;;;;;;2.38;2.28;;;5.90;99.90;;;;;;4989322;28;20219;-71
2022/11/05 02:55:31;;;;;;;2.20;2.10;;;5.90;99.90;;;;;;4992856;28;20630;-71
2022/11/05 02:57:59;;;;;;;2.30;2.20;;;5.90;99.90;;;;;;4992497;28;20224;-71
2022/11/05 03:00:46;;;;;;;2.10;2.00;;;5.90;99.90;;;;;;4995079;28;20554;-71
2022/11/05 03:03:29;;;;;;;2.00;2.00;;;5.90;99.90;;;;;;4998802;28;20710;-71
2022/11/05 03:06:29;;;;;;;1.83;1.83;;;5.90;99.90;;;;;;4992901;28;20196;-71
2022/11/05 03:09:20;;;;;;;2.15;2.05;;;5.80;99.90;;;;;;4993387;28;20228;-71
2022/11/05 03:11:57;;;;;;;1.70;1.70;;;5.80;99.90;;;;;;4952964;28;20197;-71
2022/11/05 03:14:31;;;;;;;2.28;2.17;;;5.70;99.90;;;;;;4991184;28;20196;-71
2022/11/05 03:17:04;;;;;;;2.38;2.28;;;5.70;99.90;;;;;;4998054;28;20230;-71
2022/11/05 03:19:39;;;;;;;2.05;1.95;;;5.70;99.90;;;;;;4989057;28;20280;-71
2022/11/05 03:22:12;;;;;;;1.90;1.90;;;5.70;99.90;;;;;;4992220;28;20227;-71
2022/11/05 03:24:44;;;;;;;2.30;2.20;;;5.70;99.90;;;;;;4997031;28;20567;-71
2022/11/05 03:27:14;;;;;;;2.13;2.03;;;5.70;99.90;;;;;;4992889;28;20614;-71
2022/11/05 03:29:45;;;;;;;2.33;2.20;;;5.70;99.90;;;;;;4997623;28;20597;-70
2022/11/05 03:32:14;;;;;;;1.90;1.85;;;5.60;99.90;;;;;;4984226;28;20225;-71
2022/11/05 03:34:46;;;;;;;2.30;2.20;;;5.60;99.90;;;;;;4998270;28;22089;-71
2022/11/05 03:37:14;;;;;;;1.98;1.90;;;5.60;99.90;;;;;;4993174;28;20225;-71
2022/11/05 03:39:45;;;;;;;2.35;2.25;;;5.60;99.90;;;;;;5032396;23;20228;-77
2022/11/05 03:42:17;;;;;;;2.13;2.03;;;5.60;99.90;;;;;;4981758;28;20710;-77
2022/11/05 03:44:50;;;;;;;2.40;2.30;;;5.70;99.90;;;;;;4982129;28;20197;-75
2022/11/05 03:47:21;;;;;;;2.30;2.20;;;5.60;99.90;;;;;;4990282;28;20221;-75
2022/11/05 03:49:56;;;;;;;2.28;2.17;;;5.60;99.90;;;;;;4984749;28;20655;-75
2022/11/05 03:52:27;;;;;;;2.20;2.10;;;5.60;99.90;;;;;;4974132;28;20251;-77
2022/11/05 03:54:55;;;;;;;1.83;1.83;;;5.60;99.90;;;;;;4978478;28;20197;-75
2022/11/05 03:57:25;;;;;;;2.35;2.25;;;5.60;99.90;;;;;;4968398;28;20276;-75
2022/11/05 03:59:52;;;;;;;2.22;2.13;;;5.60;99.90;;;;;;4972914;28;20233;-75
2022/11/05 04:02:22;;;;;;;1.92;1.90;;;5.60;99.90;;;;;;4973309;28;20220;-80
2022/11/05 04:04:52;;;;;;;2.10;2.00;;;5.60;99.90;;;;;;4972749;28;20206;-75
2022/11/05 04:17:05;;;;;;;2.38;2.28;;;5.50;99.90;;;;;;4971884;28;20199;-75
2022/11/05 04:18:19;;;;;;;2.40;2.30;;;5.50;99.90;;;;;;4978240;28;20217;-75
2022/11/05 04:26:25;;;;;;;2.20;2.10;;;5.30;99.90;;;;;;4978383;28;20231;-76
2022/11/05 04:31:37;;;;;;;2.10;2.00;;;5.50;99.90;;;;;;4974160;28;20204;-77
2022/11/05 04:34:05;;;;;;;2.47;2.38;;;5.50;99.90;;;;;;4970021;28;20202;-75
2022/11/05 04:36:33;;;;;;;2.30;2.20;;;5.50;99.90;;;;;;4963824;28;20214;-75
2022/11/05 04:39:00;;;;;;;2.47;2.38;;;5.60;99.90;;;;;;4973461;28;20224;-75
2022/11/05 04:41:27;;;;;;;2.20;2.10;;;5.60;99.90;;;;;;4976205;28;20666;-80
2022/11/05 04:43:54;;;;;;;2.10;2.00;;;5.60;99.90;;;;;;4976722;28;20216;-76
2022/11/05 04:46:21;;;;;;;2.25;2.15;;;5.70;99.90;;;;;;4973848;28;20228;-75
2022/11/05 04:48:48;;;;;;;2.20;2.10;;;5.70;99.90;;;;;;4982040;28;20695;-75
2022/11/05 04:51:16;;;;;;;2.22;2.13;;;5.70;99.90;;;;;;4971805;28;20660;-75
2022/11/05 04:53:44;;;;;;;2.22;2.13;;;5.70;99.90;;;;;;4979034;28;20718;-76
2022/11/05 04:56:12;;;;;;;2.15;2.05;;;5.60;99.90;;;;;;4982074;28;20201;-75
2022/11/05 04:58:40;;;;;;;2.00;2.00;;;5.50;99.90;;;;;;4975952;28;20220;-75
2022/11/05 05:01:11;;;;;;;2.08;1.98;;;5.50;99.90;;;;;;4978009;28;20211;-76
2022/11/05 05:03:38;;;;;;;1.90;1.83;;;5.50;99.90;;;;;;4974721;28;20229;-75
2022/11/05 05:06:05;;;;;;;2.33;2.22;;;5.50;99.90;;;;;;4980176;28;20563;-75
2022/11/05 05:08:32;;;;;;;2.15;2.05;;;5.50;99.90;;;;;;4971492;28;20222;-75
2022/11/05 05:11:03;;;;;;;2.00;2.00;;;5.50;99.90;;;;;;4972373;28;20225;-75
2022/11/05 05:13:30;;;;;;;2.13;2.03;;;5.50;99.90;;;;;;4973914;28;20224;-79
2022/11/05 05:15:57;;;;;;;2.40;2.30;;;5.40;99.90;;;;;;4979768;28;20194;-76
2022/11/05 05:18:25;;;;;;;2.45;2.35;;;5.40;99.90;;;;;;4968835;28;20277;-78
2022/11/05 05:23:37;;;;;;;2.38;2.28;;;5.40;99.90;;;;;;4972914;28;20216;-75
2022/11/05 05:26:06;;;;;;;2.63;2.53;;;5.40;99.90;;;;;;4975375;28;20280;-76
2022/11/05 05:28:33;;;;;;;2.40;2.30;;;5.40;99.90;;;;;;4971670;28;20218;-74
2022/11/05 05:31:00;;;;;;;2.30;2.20;;;5.40;99.90;;;;;;4969431;28;20225;-76
2022/11/05 05:33:27;;;;;;;2.65;2.33;;;5.40;99.90;;;;;;4980123;28;20217;-77
2022/11/05 05:35:57;;;;;;;2.35;2.25;;;5.30;99.90;;;;;;4986552;28;20203;-76
2022/11/05 05:38:24;;;;;;;2.38;2.28;;;5.30;99.90;;;;;;4966082;28;20223;-75
2022/11/05 05:40:52;;;;;;;2.50;2.30;;;5.30;99.90;;;;;;4980419;28;20596;-76
2022/11/05 05:43:20;;;;;;;2.25;2.15;;;5.30;99.90;;;;;;4969407;28;20592;-74
2022/11/05 05:45:47;;;;;;;2.47;2.38;;;5.30;99.90;;;;;;4976790;28;21465;-76
2022/11/05 05:48:14;;;;;;;2.65;2.55;;;5.30;99.90;;;;;;4977209;28;20230;-77
2022/11/05 05:50:42;;;;;;;2.25;2.15;;;5.30;99.90;;;;;;4985091;28;20224;-76
2022/11/05 05:53:09;;;;;;;2.25;2.15;;;5.30;99.90;;;;;;4964275;28;20214;-75
2022/11/05 05:55:36;;;;;;;2.20;2.10;;;5.30;99.90;;;;;;4980999;28;20213;-78
2022/11/05 05:58:03;;;;;;;2.25;2.15;;;5.40;99.90;;;;;;4975892;28;20600;-77
2022/11/05 06:00:32;;;;;;;2.50;2.40;;;5.40;99.90;;;;;;4976710;28;20581;-76
2022/11/05 06:02:59;;;;;;;2.35;2.25;;;5.40;99.90;;;;;;4956640;28;20225;-77
2022/11/05 06:05:26;;;;;;;2.70;2.60;;;5.40;99.90;;;;;;4969076;28;20217;-76
2022/11/05 06:07:56;;;;;;;2.38;2.28;;;5.40;99.90;;;;;;4963233;28;20236;-77
2022/11/05 06:10:24;;;;;;;1.85;1.80;;;5.40;99.90;;;;;;4965286;28;20265;-76
2022/11/05 06:12:51;;;;;;;2.20;2.10;;;5.30;99.90;;;;;;4970715;28;20696;-76
2022/11/05 06:15:19;;;;;;;2.38;2.28;;;5.30;99.90;;;;;;4976570;28;20750;-76
2022/11/05 06:17:47;;;;;;;2.50;2.40;;;5.30;99.90;;;;;;4979109;28;20226;-79
2022/11/05 06:20:14;;;;;;;2.22;2.13;;;5.30;99.90;;;;;;4974622;28;20218;-78
2022/11/05 06:22:41;;;;;;;2.50;2.40;;;5.30;99.90;;;;;;4961326;28;20222;-76
2022/11/05 06:25:09;;;;;;;2.28;2.17;;;5.20;99.90;;;;;;4963268;28;20208;-76
2022/11/05 06:27:36;;;;;;;2.70;2.60;;;5.20;99.90;;;;;;4968794;28;20225;-74
2022/11/05 06:30:04;;;;;;;2.35;2.25;;;5.20;99.90;;;;;;4966117;28;20237;-77
2022/11/05 06:32:32;;;;;;;2.20;2.10;;;5.20;99.90;;;;;;4973848;28;20228;-74
2022/11/05 06:35:00;;;;;;;2.35;2.25;;;5.30;99.90;;;;;;4965641;28;20197;-75
2022/11/05 06:37:27;;;;;;;2.40;2.30;;;5.30;99.90;;;;;;4966959;28;20236;-80
2022/11/05 06:39:56;;;;;;;2.22;2.13;;;5.30;99.90;;;;;;4981617;28;20794;-76
2022/11/05 06:42:24;;;;;;;1.83;1.83;;;5.40;99.90;;;;;;4975281;28;20228;-79
2022/11/05 06:44:51;;;;;;;2.13;2.03;;;5.40;99.90;;;;;;4976326;28;20476;-77
2022/11/05 06:47:19;;;;;;;2.35;2.25;;;5.40;99.90;;;;;;4973100;28;20703;-75
2022/11/05 06:49:46;;;;;;;2.70;2.60;;;5.40;99.90;;;;;;4985647;28;20695;-80
2022/11/05 06:52:16;;;;;;;2.33;2.22;;;5.50;99.90;;;;;;4977841;28;20224;-80
2022/11/05 06:54:43;;;;;;;2.58;2.47;;;5.50;99.90;;;;;;4973777;28;20708;-76
2022/11/05 06:57:12;;;;;;;2.53;2.42;;;5.60;99.90;;;;;;4979092;28;20307;-78
2022/11/05 06:59:39;;;;;;;2.20;2.10;;;5.50;99.90;;;;;;4979132;28;20217;-75
2022/11/05 07:02:07;;;;;;;3.60;3.40;;;5.50;99.90;;;;;;4975769;28;20239;-75
2022/11/05 07:04:35;;;;;;;3.47;3.25;;;5.50;99.90;;;;;;4977555;28;20201;-76
2022/11/05 07:07:02;;;;;;;3.05;2.85;;;5.50;99.90;;;;;;4976943;28;20221;-80
2022/11/05 07:09:30;;;;;;;3.10;2.90;;;5.80;99.90;;;;;;4976680;28;20236;-77
2022/11/05 07:11:57;;;;;;;2.72;2.53;;;6.80;99.90;;;;;;4975072;28;20240;-74
2022/11/05 07:14:24;;;;;;;2.50;2.40;;;7.90;99.90;;;;;;4983659;28;20199;-74
2022/11/05 07:16:51;;;;;;;2.40;2.30;;;9.00;99.90;;;;;;4978564;28;20220;-76
2022/11/05 07:19:18;;;;;;;2.00;1.90;;;9.90;99.90;;;;;;4973313;28;20218;-76
2022/11/05 07:21:47;;;;;;;2.38;2.28;;;10.60;99.90;;;;;;4981148;28;20214;-76
2022/11/05 07:24:14;;;;;;;2.60;2.40;;;11.20;99.90;;;;;;4976725;28;20205;-76
2022/11/05 07:26:43;;;;;;;2.28;2.17;;;11.50;99.90;;;;;;4975051;28;20208;-76
2022/11/05 07:29:10;;;;;;;2.38;2.25;;;12.00;99.90;;;;;;4984927;28;20236;-75
2022/11/05 07:31:37;;;;;;;2.47;2.30;;;12.40;99.90;;;;;;4985398;28;20197;-76
2022/11/05 07:34:04;;;;;;;2.00;1.90;;;13.00;99.90;;;;;;4979127;28;20201;-76
2022/11/05 07:36:31;;;;;;;1.92;1.83;;;13.50;99.90;;;;;;4976174;28;20201;-75
2022/11/05 07:38:58;;;;;;;2.00;1.90;;;13.80;99.90;;;;;;4975949;28;20197;-76
2022/11/05 07:41:25;;;;;;;2.22;2.03;;;14.20;99.90;;;;;;4976905;28;20205;-77
2022/11/05 07:43:54;;;;;;;2.15;2.05;;;14.50;99.90;;;;;;4978157;28;20240;-76
2022/11/05 07:46:21;;;;;;;2.00;1.90;;;14.70;99.90;;;;;;4976802;28;20200;-75
2022/11/05 07:48:48;;;;;;;5.00;2.47;;;14.80;99.90;;;;;;4969864;28;20233;-76
2022/11/05 07:51:15;;;;;;;3.08;2.03;;;14.80;99.90;;;;;;4971148;28;20212;-77
2022/11/05 07:53:42;;;;;;;1.88;1.77;;;14.40;99.90;;;;;;4970559;28;20606;-75
2022/11/05 07:56:10;;;;;;;1.75;1.65;;;14.50;99.90;;;;;;4967986;28;20229;-74
2022/11/05 07:58:38;;;;;;;1.50;1.40;;;14.50;99.90;;;;;;4970073;28;20719;-76
2022/11/05 08:01:07;;;;;;;2.20;2.10;;;14.80;99.90;;;;;;4969269;28;20220;-76
2022/11/05 08:03:34;;;;;;;4.03;2.35;;;15.10;99.90;;;;;;4970921;28;20301;-75
2022/11/05 08:06:01;;;;;;;2.13;1.98;;;15.20;99.90;;;;;;4959687;28;20209;-76
2022/11/05 08:08:28;;;;;;;1.98;1.77;;;15.20;99.90;;;;;;4952956;28;20225;-76
2022/11/05 08:11:03;;;;;;;3.03;1.98;;;15.00;99.90;;;;;;4958527;28;20604;-76
2022/11/05 08:13:30;;;;;;;3.03;1.95;;;14.60;99.90;;;;;;4964612;28;20243;-75
2022/11/05 08:15:57;;;;;;;1.80;1.70;;;14.30;99.90;;;;;;4965543;28;20297;-74
2022/11/05 08:18:30;;;;;;;1.83;1.73;;;14.10;99.90;;;;;;4969487;28;20216;-76
2022/11/05 08:20:58;;;;;;;1.70;1.60;;;14.40;99.90;;;;;;4977592;28;20223;-74
2022/11/05 08:23:25;;;;;;;2.00;1.90;;;14.70;99.90;;;;;;4959575;28;20249;-75
2022/11/05 08:25:52;;;;;;;1.85;1.75;;;15.20;99.90;;;;;;4959145;28;20808;-76
2022/11/05 08:28:20;;;;;;;2.17;1.90;;;15.50;99.90;;;;;;4963843;28;20220;-75
2022/11/05 08:30:50;;;;;;;1.95;1.85;;;15.70;99.90;;;;;;4965745;28;20326;-76
2022/11/05 08:33:17;;;;;;;3.72;1.90;;;16.20;99.90;;;;;;4966611;28;20280;-76
2022/11/05 08:35:45;;;;;;;1.95;1.85;;;16.20;99.90;;;;;;4965463;28;20246;-76
2022/11/05 08:38:14;;;;;;;1.90;1.80;;;15.80;99.90;;;;;;4963325;28;20230;-76
2022/11/05 08:40:42;;;;;;;1.83;1.73;;;15.40;99.90;;;;;;4960549;28;21607;-76
2022/11/05 08:43:10;;;;;;;1.80;1.70;;;15.30;99.90;;;;;;4960244;28;20228;-76
2022/11/05 08:45:38;;;;;;;1.77;1.67;;;15.50;99.90;;;;;;4958940;28;20201;-76
2022/11/05 08:48:08;;;;;;;2.00;1.80;;;15.40;99.90;;;;;;4982276;28;20224;-76
2022/11/05 08:50:35;;;;;;;1.45;1.35;;;15.40;99.90;;;;;;4968515;28;20222;-76
2022/11/05 08:53:04;;;;;;;2.10;1.70;;;15.50;99.90;;;;;;4974347;28;20220;-76
2022/11/05 08:55:32;;;;;;;1.70;1.60;;;15.70;99.90;;;;;;4974916;28;20283;-76
2022/11/05 08:58:01;;;;;;;1.63;1.52;;;15.80;99.90;;;;;;4979775;28;20228;-77
2022/11/05 09:00:30;;;;;;;2.10;2.00;;;16.20;99.90;;;;;;4964332;28;20214;-76
2022/11/05 09:02:59;;;;;;;2.42;1.75;;;16.60;99.90;;;;;;4984488;28;20221;-76
2022/11/05 09:05:27;;;;;;;2.30;1.70;;;16.70;99.90;;;;;;4971399;28;20249;-75
2022/11/05 09:07:54;;;;;;;1.45;1.35;;;17.00;99.90;;;;;;4974863;28;20240;-76
2022/11/05 09:10:22;;;;;;;1.70;1.60;;;17.60;99.90;;;;;;4978467;28;20241;-77
2022/11/05 09:12:50;;;;;;;1.70;1.60;;;18.30;99.90;;;;;;4974706;28;20223;-76
2022/11/05 09:15:17;;;;;;;1.60;1.50;;;18.40;99.90;;;;;;4977513;28;20209;-76
2022/11/05 09:17:44;;;;;;;1.35;1.33;;;18.30;99.90;;;;;;4981555;28;20245;-75
2022/11/05 09:20:12;;;;;;;1.90;1.67;;;18.00;99.90;;;;;;4986473;28;20213;-76
2022/11/05 09:22:39;;;;;;;2.33;1.75;;;17.70;99.90;;;;;;4983146;28;20258;-76
2022/11/05 09:25:08;;;;;;;1.73;1.63;;;17.50;99.90;;;;;;4982645;28;20638;-76
2022/11/05 09:27:41;;;;;;;2.00;1.70;;;17.30;99.90;;;;;;4968932;28;20308;-76
2022/11/05 09:30:11;;;;;;;1.63;1.52;;;17.20;99.90;;;;;;4980667;28;20225;-75
2022/11/05 09:32:38;;;;;;;1.30;1.20;;;17.10;99.90;;;;;;4977843;28;20222;-75
2022/11/05 09:35:05;;;;;;;1.73;1.55;;;17.10;99.90;;;;;;4985673;28;20572;-77
2022/11/05 09:37:33;;;;;;;1.98;1.88;;;17.00;99.90;;;;;;4981394;28;20229;-77
2022/11/05 09:40:00;;;;;;;1.83;1.55;;;17.00;99.90;;;;;;4997791;23;20325;-71
2022/11/05 09:42:32;;;;;;;1.83;1.73;;;17.20;99.90;;;;;;5009175;28;20231;-71
2022/11/05 09:45:03;;;;;;;1.70;1.60;;;17.30;99.90;;;;;;5007635;28;20201;-71
2022/11/05 09:47:35;;;;;;;2.13;1.60;;;17.30;99.90;;;;;;4998702;28;20217;-71
2022/11/05 09:50:06;;;;;;;1.60;1.50;;;17.20;99.90;;;;;;4983331;28;20217;-71
2022/11/05 09:52:34;;;;;;;1.90;1.80;;;16.90;99.90;;;;;;4982413;28;20217;-71
2022/11/05 09:55:04;;;;;;;1.80;1.70;;;16.70;99.90;;;;;;4985456;28;20212;-71
2022/11/05 09:57:43;;;;;;;1.77;1.67;;;16.80;99.90;;;;;;4983325;28;20229;-72
2022/11/05 10:00:16;;;;;;;1.80;1.70;;;17.20;99.90;;;;;;4981003;28;20220;-71
2022/11/05 10:02:52;;;;;;;2.00;1.77;;;17.30;99.90;;;;;;4984393;28;20221;-71
2022/11/05 10:05:20;;;;;;;1.60;1.50;;;17.40;99.90;;;;;;4986028;28;20232;-72
2022/11/05 10:07:50;;;;;;;1.63;1.52;;;17.50;99.90;;;;;;4984583;28;20231;-71
2022/11/05 10:10:30;;;;;;;2.30;1.60;;;17.80;99.90;;;;;;4986264;28;20230;-72
2022/11/05 10:13:01;;;;;;;1.80;1.70;;;17.70;99.90;;;;;;4984278;28;20220;-72
2022/11/05 10:15:33;;;;;;;1.35;1.25;;;17.50;99.90;;;;;;4982374;28;20209;-72
2022/11/05 10:18:06;;;;;;;1.63;1.52;;;17.40;99.90;;;;;;4986513;28;20236;-72
2022/11/05 10:20:35;;;;;;;1.50;1.40;;;17.20;99.90;;;;;;4981310;28;20272;-74
2022/11/05 10:23:09;;;;;;;1.42;1.33;;;17.00;99.90;;;;;;4988098;28;20228;-72
2022/11/05 10:25:39;;;;;;;1.85;1.75;;;16.70;99.90;;;;;;4986009;28;20240;-72
2022/11/05 10:28:07;;;;;;;1.40;1.40;;;16.80;99.90;;;;;;4981708;28;20229;-72
2022/11/05 10:30:36;;;;;;;1.65;1.50;;;17.10;99.90;;;;;;4987030;28;20236;-72
2022/11/05 10:33:06;;;;;;;1.83;1.48;;;17.40;99.90;;;;;;4987747;28;20224;-72
2022/11/05 10:35:35;;;;;;;1.60;1.45;;;17.70;99.90;;;;;;4984559;28;20252;-72
2022/11/05 10:38:03;;;;;;;1.35;1.27;;;17.80;99.90;;;;;;4988585;28;20217;-72
2022/11/05 10:40:37;;;;;;;1.30;1.20;;;18.00;99.90;;;;;;4986539;28;20232;-72
2022/11/05 10:43:08;;;;;;;1.50;1.40;;;18.00;99.90;;;;;;4987134;28;20271;-72
2022/11/05 10:45:52;;;;;;;1.25;1.20;;;18.10;99.90;;;;;;4987107;28;20205;-72
2022/11/05 10:48:41;;;;;;;1.77;1.67;;;18.00;99.90;;;;;;4989309;28;20228;-72
2022/11/05 10:51:08;;;;;;;1.70;1.60;;;18.00;99.90;;;;;;4988072;28;20225;-72
2022/11/05 10:53:38;;;;;;;1.20;1.10;;;18.10;99.90;;;;;;4984527;28;20247;-72
2022/11/05 10:56:29;;;;;;;1.40;1.30;;;18.50;99.90;;;;;;4985499;28;20197;-72
2022/11/05 10:58:58;;;;;;;1.13;1.13;;;18.70;99.90;;;;;;4981468;28;20228;-72
2022/11/05 11:01:28;;;;;;;2.05;1.67;;;18.80;99.90;;;;;;4983652;28;20217;-72
2022/11/05 11:04:15;;;;;;;1.40;1.30;;;18.90;99.90;;;;;;4982179;28;20726;-72
2022/11/05 11:06:48;;;;;;;1.42;1.33;;;19.10;99.90;;;;;;4985386;28;20261;-72
2022/11/05 11:09:22;;;;;;;1.55;1.45;;;19.30;99.90;;;;;;4985646;28;20292;-72
2022/11/05 11:12:04;;;;;;;1.52;1.42;;;19.40;99.90;;;;;;4981764;28;20249;-72
2022/11/05 11:14:32;;;;;;;1.60;1.50;;;19.40;99.90;;;;;;4989024;28;20197;-72
2022/11/05 11:20:20;;;;;;;1.65;1.42;;;19.40;99.90;;;;;;5107644;27;20553;-73
2022/11/05 11:23:00;;;;;;;1.40;1.30;;;19.40;99.90;;;;;;5096062;28;20221;-75
2022/11/05 11:25:40;;;;;;;1.25;1.20;;;19.40;99.90;;;;;;5083758;28;20323;-75
2022/11/05 11:28:24;;;;;;;1.42;1.33;;;19.20;99.90;;;;;;5076795;28;20699;-75
2022/11/05 11:31:00;;;;;;;1.30;1.20;;;19.10;99.90;;;;;;5066928;28;20606;-75
2022/11/05 11:33:29;;;;;;;1.27;1.27;;;19.10;99.90;;;;;;5060478;28;20230;-75
2022/11/05 11:35:58;;;;;;;1.85;1.63;;;18.90;99.90;;;;;;5063669;28;20655;-74
2022/11/05 11:38:30;;;;;;;1.40;1.30;;;19.00;99.90;;;;;;5061000;28;20214;-74
2022/11/05 11:41:06;;;;;;;1.95;1.40;;;19.00;99.90;;;;;;5062738;28;20202;-74
2022/11/05 11:43:37;;;;;;;1.33;1.23;;;18.90;99.90;;;;;;5062046;27;20213;-75
2022/11/05 11:46:13;;;;;;;1.42;1.17;;;18.80;99.90;;;;;;5064044;28;20197;-75
2022/11/05 11:48:42;;;;;;;1.55;1.45;;;18.80;99.90;;;;;;5060391;28;20287;-75
2022/11/05 11:51:33;;;;;;;1.55;1.45;;;18.80;99.90;;;;;;5058910;28;20222;-75
2022/11/05 11:54:01;;;;;;;1.10;1.10;;;18.70;99.90;;;;;;5062896;28;20276;-75
2022/11/05 11:56:31;;;;;;;1.30;1.20;;;18.70;99.90;;;;;;5062819;28;20194;-74
2022/11/05 11:59:02;;;;;;;1.17;1.08;;;18.60;99.90;;;;;;5062134;28;20321;-75
2022/11/05 12:02:18;;;;;;;1.50;1.40;;;18.60;99.90;;;;;;5066317;28;20213;-74
2022/11/05 12:05:20;;;;;;;1.33;1.20;;;18.50;99.90;;;;;;5041911;28;20292;-74
2022/11/05 12:07:52;;;;;;;1.40;1.30;;;18.50;99.90;;;;;;5057618;28;20222;-75
2022/11/05 12:10:34;;;;;;;2.10;1.40;;;18.50;99.90;;;;;;5069278;28;20244;-75
2022/11/05 12:13:30;;;;;;;2.13;1.48;;;18.70;99.90;;;;;;5062059;28;20218;-74
2022/11/05 12:16:02;;;;;;;1.60;1.50;;;19.00;99.90;;;;;;5064673;28;20201;-74
2022/11/05 12:18:35;;;;;;;1.50;1.40;;;19.10;99.90;;;;;;5063555;28;20214;-75
2022/11/05 12:21:09;;;;;;;1.40;1.30;;;18.80;99.90;;;;;;5066755;28;20189;-75
2022/11/05 12:24:09;;;;;;;1.35;1.25;;;18.40;99.90;;;;;;5068468;28;20211;-75
2022/11/05 12:26:44;;;;;;;1.20;1.10;;;18.30;99.90;;;;;;5056041;28;20684;-75
2022/11/05 12:29:34;;;;;;;1.50;1.40;;;18.30;99.90;;;;;;5042931;28;20679;-75
2022/11/05 12:32:26;;;;;;;1.85;1.48;;;18.00;99.90;;;;;;5027532;28;20239;-75
2022/11/05 12:35:01;;;;;;;1.42;1.33;;;17.80;99.90;;;;;;5028361;28;20196;-74
2022/11/05 12:37:33;;;;;;;1.30;1.30;;;18.00;99.90;;;;;;5029286;28;20704;-75
2022/11/05 12:40:29;;;;;;;1.67;1.58;;;18.20;99.90;;;;;;5030792;28;20219;-75
2022/11/05 12:43:05;;;;;;;2.05;1.60;;;18.50;99.90;;;;;;5030597;28;20697;-74
2022/11/05 12:45:41;;;;;;;1.23;1.13;;;18.30;99.90;;;;;;5032044;28;20641;-73
2022/11/05 12:48:24;;;;;;;2.33;1.35;;;18.10;99.90;;;;;;5028561;28;20227;-73
2022/11/05 12:50:55;;;;;;;1.45;1.35;;;18.00;99.90;;;;;;5031105;28;20202;-73
2022/11/05 12:53:55;;;;;;;1.67;1.58;;;18.00;99.90;;;;;;5031491;28;20223;-73
2022/11/05 12:56:35;;;;;;;1.48;1.38;;;18.10;99.90;;;;;;5029729;28;20202;-73
2022/11/05 12:59:12;;;;;;;1.38;1.30;;;18.10;99.90;;;;;;5028308;28;20223;-73
2022/11/05 13:01:44;;;;;;;1.50;1.40;;;18.20;99.90;;;;;;5027088;28;20201;-73
2022/11/05 13:04:30;;;;;;;1.27;1.20;;;18.40;99.90;;;;;;5050445;28;20195;-73
2022/11/05 13:07:00;;;;;;;1.33;1.23;;;18.70;99.90;;;;;;5048364;28;20241;-73
2022/11/05 13:09:34;;;;;;;1.50;1.40;;;18.90;99.90;;;;;;5047434;28;20215;-73
2022/11/05 13:12:08;;;;;;;1.40;1.30;;;19.00;99.90;;;;;;5046861;28;20217;-74
2022/11/05 13:14:40;;;;;;;1.30;1.20;;;19.00;99.90;;;;;;5049470;28;20205;-73
2022/11/05 13:17:12;;;;;;;1.10;1.10;;;19.00;99.90;;;;;;5047532;28;20222;-74
2022/11/05 13:19:43;;;;;;;1.40;1.30;;;19.00;99.90;;;;;;5048981;28;20587;-73
2022/11/05 13:22:17;;;;;;;2.25;1.40;;;19.00;99.90;;;;;;5049515;28;20222;-73
2022/11/05 13:24:49;;;;;;;1.27;1.17;;;19.10;99.90;;;;;;5048785;28;20561;-74
2022/11/05 13:27:42;;;;;;;2.13;1.05;;;19.00;99.90;;;;;;5042685;28;20223;-73
2022/11/05 13:30:16;;;;;;;1.30;1.20;;;18.70;99.90;;;;;;5033102;28;20658;-73
2022/11/05 13:32:47;;;;;;;1.27;1.20;;;18.60;99.90;;;;;;5033490;28;20315;-74
2022/11/05 13:35:25;;;;;;;1.23;1.13;;;18.60;99.90;;;;;;5039511;28;20827;-73
2022/11/05 13:40:50;;;;;;;1.05;1.05;;;18.90;99.90;;;;;;5033516;28;20195;-73
2022/11/05 13:43:52;;;;;;;0.80;0.80;;;19.00;99.90;;;;;;5047514;28;20218;-74
2022/11/05 13:46:45;;;;;;;1.85;0.90;;;18.90;99.90;;;;;;5049977;28;20195;-73
2022/11/05 13:49:52;;;;;;;1.00;0.90;;;18.90;99.90;;;;;;5048202;28;20277;-73
2022/11/05 13:52:46;;;;;;;0.75;0.75;;;18.70;99.90;;;;;;5049270;28;20215;-74
2022/11/05 13:55:39;;;;;;;0.77;0.77;;;18.50;99.90;;;;;;5055651;28;20198;-73
2022/11/05 13:58:37;;;;;;;0.80;0.80;;;18.30;99.90;;;;;;5047020;28;20219;-73
2022/11/05 14:01:14;;;;;;;0.70;0.70;;;18.10;99.90;;;;;;5047938;28;20218;-73
2022/11/05 14:03:47;;;;;;;0.90;0.90;;;18.10;99.90;;;;;;5050685;28;20711;-73
2022/11/05 14:06:22;;;;;;;0.80;0.80;;;18.20;99.90;;;;;;5052189;28;20205;-73